Time;durP1;ratioP1;P1;durP2;ratioP2;P2;SDS_P1;SDS_P2;PMS_P1;PMS_P2;Temp;Humidity;BMP_temperature;BMP_pressure;BME280_temperature;BME280_humidity;BME280_pressure;Samples;Min_cycle;Max_cycle;Signal;HPM_P1;HPM_P2
2022/02/15 00:00:46;;;;;;;3.13;1.30;;;;;13.20;100450.00;;;;5078835;28;20264;-81
2022/02/15 00:03:13;;;;;;;0.95;0.85;;;;;13.10;100445.00;;;;5087664;28;20204;-81
2022/02/15 00:05:40;;;;;;;1.70;1.05;;;;;13.10;100442.00;;;;5072471;28;20607;-82
2022/02/15 00:08:08;;;;;;;1.58;1.23;;;;;13.10;100449.00;;;;5069651;28;20198;-81
2022/02/15 00:10:36;;;;;;;2.15;1.33;;;;;13.10;100453.00;;;;5071335;28;20217;-81
2022/02/15 00:13:03;;;;;;;1.67;1.00;;;;;13.10;100447.00;;;;5075886;28;20210;-82
2022/02/15 00:15:31;;;;;;;2.42;1.30;;;;;13.10;100457.00;;;;5070745;28;20222;-81
2022/02/15 00:17:59;;;;;;;2.80;1.80;;;;;13.10;100453.00;;;;5070053;28;20226;-81
2022/02/15 00:20:27;;;;;;;2.35;1.40;;;;;13.10;100457.00;;;;5076408;28;20195;-81
2022/02/15 00:22:55;;;;;;;1.33;1.10;;;;;13.20;100457.00;;;;5078572;28;20290;-81
2022/02/15 00:25:22;;;;;;;1.45;1.20;;;;;13.20;100458.00;;;;5088483;28;20221;-81
2022/02/15 00:27:53;;;;;;;2.63;1.27;;;;;13.10;100459.00;;;;5090808;28;20201;-81
2022/02/15 00:30:20;;;;;;;1.80;1.38;;;;;13.10;100461.00;;;;5072401;28;20203;-81
2022/02/15 00:32:48;;;;;;;2.78;1.20;;;;;13.10;100453.00;;;;5071492;28;20780;-81
2022/02/15 00:35:15;;;;;;;1.55;1.15;;;;;13.10;100463.00;;;;5070341;28;20651;-81
2022/02/15 00:37:43;;;;;;;3.70;1.25;;;;;13.10;100470.00;;;;5074669;28;20221;-81
2022/02/15 00:40:10;;;;;;;2.13;1.40;;;;;13.10;100463.00;;;;5089045;28;20217;-80
2022/02/15 00:42:39;;;;;;;2.08;1.40;;;;;13.10;100463.00;;;;5084265;28;20195;-81
2022/02/15 00:45:09;;;;;;;2.13;1.20;;;;;13.00;100471.00;;;;5090749;28;20269;-81
2022/02/15 00:47:36;;;;;;;2.47;1.35;;;;;13.10;100471.00;;;;5076970;28;20206;-81
2022/02/15 00:50:05;;;;;;;2.28;1.65;;;;;13.00;100475.00;;;;5073509;28;20254;-81
2022/02/15 00:52:33;;;;;;;2.33;1.52;;;;;13.10;100469.00;;;;5069356;28;20203;-81
2022/02/15 00:55:00;;;;;;;4.20;1.35;;;;;13.10;100464.00;;;;5069031;28;20684;-80
2022/02/15 00:57:28;;;;;;;1.88;1.35;;;;;13.10;100469.00;;;;5069900;28;20688;-81
2022/02/15 00:59:55;;;;;;;3.53;1.40;;;;;13.10;100475.00;;;;5069798;28;20198;-80
2022/02/15 01:02:23;;;;;;;3.40;1.98;;;;;13.00;100474.00;;;;5069616;28;20206;-81
2022/02/15 01:04:51;;;;;;;4.60;1.90;;;;;13.00;100468.00;;;;5079397;28;20214;-80
2022/02/15 01:07:18;;;;;;;2.70;1.83;;;;;13.00;100467.00;;;;5080875;28;20645;-81
2022/02/15 01:09:45;;;;;;;3.55;1.70;;;;;13.00;100475.00;;;;5069628;28;20279;-81
2022/02/15 01:12:12;;;;;;;4.80;1.50;;;;;13.00;100474.00;;;;5082826;28;20678;-81
2022/02/15 01:14:40;;;;;;;2.88;1.80;;;;;13.00;100468.00;;;;5072250;28;20203;-81
2022/02/15 01:17:07;;;;;;;3.17;2.25;;;;;13.00;100473.00;;;;5080285;28;20661;-82
2022/02/15 01:19:36;;;;;;;2.83;1.80;;;;;12.90;100476.00;;;;5069417;28;20229;-81
2022/02/15 01:22:04;;;;;;;2.58;1.83;;;;;13.00;100487.00;;;;5088445;28;20197;-81
2022/02/15 01:24:31;;;;;;;2.17;1.60;;;;;13.00;100482.00;;;;5073220;28;20254;-80
2022/02/15 01:26:59;;;;;;;2.53;1.58;;;;;13.00;100490.00;;;;5084752;28;20253;-81
2022/02/15 01:29:27;;;;;;;1.58;1.42;;;;;13.00;100493.00;;;;5073457;28;20190;-80
2022/02/15 01:31:54;;;;;;;2.63;1.60;;;;;13.00;100494.00;;;;5068543;28;20202;-81
2022/02/15 01:34:22;;;;;;;2.67;1.70;;;;;13.00;100497.00;;;;5078279;28;20198;-81
2022/02/15 01:36:51;;;;;;;3.28;1.48;;;;;12.90;100501.00;;;;5068477;28;20207;-80
2022/02/15 01:39:18;;;;;;;2.85;1.52;;;;;13.00;100497.00;;;;5069134;28;20570;-81
2022/02/15 01:41:46;;;;;;;1.95;1.27;;;;;13.00;100496.00;;;;5069604;28;20920;-81
2022/02/15 01:44:13;;;;;;;2.20;1.23;;;;;13.00;100497.00;;;;5069499;28;20211;-81
2022/02/15 01:46:41;;;;;;;1.63;1.10;;;;;13.00;100498.00;;;;5079202;28;20199;-81
2022/02/15 01:49:08;;;;;;;1.20;0.95;;;;;13.00;100506.00;;;;5068646;28;20198;-81
2022/02/15 01:51:35;;;;;;;1.73;0.93;;;;;12.90;100515.00;;;;5066702;28;20256;-81
2022/02/15 01:54:04;;;;;;;1.77;0.90;;;;;12.90;100511.00;;;;5071380;28;20194;-81
2022/02/15 01:56:32;;;;;;;1.63;1.05;;;;;12.90;100511.00;;;;5098831;28;20204;-81
2022/02/15 01:58:59;;;;;;;1.30;0.82;;;;;12.90;100519.00;;;;5086177;28;20199;-81
2022/02/15 02:01:26;;;;;;;2.53;1.25;;;;;12.90;100516.00;;;;5077717;28;20193;-81
2022/02/15 02:03:53;;;;;;;3.47;1.08;;;;;12.90;100517.00;;;;5069078;28;20210;-81
2022/02/15 02:06:20;;;;;;;2.20;0.88;;;;;12.90;100518.00;;;;5068073;28;20187;-81
2022/02/15 02:08:49;;;;;;;1.60;1.00;;;;;12.80;100523.00;;;;5067134;28;20198;-81
2022/02/15 02:11:17;;;;;;;1.05;0.60;;;;;12.80;100527.00;;;;5067024;28;20206;-81
2022/02/15 02:13:45;;;;;;;1.52;0.70;;;;;12.80;100525.00;;;;5067244;28;20191;-81
2022/02/15 02:16:12;;;;;;;3.38;0.60;;;;;12.80;100529.00;;;;5083213;28;20218;-81
2022/02/15 02:18:39;;;;;;;1.40;0.85;;;;;12.80;100531.00;;;;5066844;28;20202;-81
2022/02/15 02:21:08;;;;;;;1.35;0.80;;;;;12.70;100542.00;;;;5067216;28;20237;-81
2022/02/15 02:23:36;;;;;;;3.33;1.13;;;;;12.70;100542.00;;;;5066356;28;20272;-81
2022/02/15 02:26:04;;;;;;;3.10;0.85;;;;;12.70;100543.00;;;;5080235;28;20885;-81
2022/02/15 02:28:33;;;;;;;1.50;0.80;;;;;12.70;100539.00;;;;5086623;28;20202;-80
2022/02/15 02:31:00;;;;;;;2.10;0.73;;;;;12.80;100537.00;;;;5073544;28;20209;-82
2022/02/15 02:33:27;;;;;;;2.58;0.60;;;;;12.80;100534.00;;;;5066499;28;20579;-81
2022/02/15 02:36:01;;;;;;;2.80;1.08;;;;;12.70;100534.00;;;;5076953;28;20316;-81
2022/02/15 02:38:30;;;;;;;1.73;0.68;;;;;12.70;100539.00;;;;5067542;28;20222;-81
2022/02/15 02:40:57;;;;;;;1.50;0.60;;;;;12.70;100536.00;;;;5067100;28;20244;-81
2022/02/15 02:43:28;;;;;;;1.67;0.75;;;;;12.70;100543.00;;;;5066584;28;20268;-81
2022/02/15 02:45:55;;;;;;;1.00;0.60;;;;;12.70;100543.00;;;;5067747;28;20712;-81
2022/02/15 02:48:22;;;;;;;1.75;0.60;;;;;12.70;100543.00;;;;5067704;28;20217;-81
2022/02/15 02:50:50;;;;;;;1.05;0.80;;;;;12.70;100543.00;;;;5077647;28;20198;-81
2022/02/15 02:53:18;;;;;;;2.00;0.73;;;;;12.70;100551.00;;;;5085756;28;20197;-81
2022/02/15 02:55:46;;;;;;;1.50;0.80;;;;;12.70;100550.00;;;;5072104;28;20206;-81
2022/02/15 02:58:13;;;;;;;1.95;0.95;;;;;12.70;100554.00;;;;5085275;28;20205;-81
2022/02/15 03:00:41;;;;;;;2.58;0.90;;;;;12.70;100559.00;;;;5068617;28;20199;-81
2022/02/15 03:03:08;;;;;;;2.45;0.88;;;;;12.70;100554.00;;;;5085751;28;20194;-81
2022/02/15 03:05:36;;;;;;;2.00;0.85;;;;;12.60;100560.00;;;;5067062;28;20222;-82
2022/02/15 03:08:04;;;;;;;3.45;1.02;;;;;12.60;100563.00;;;;5065495;28;20256;-81
2022/02/15 03:10:31;;;;;;;3.33;0.60;;;;;12.60;100564.00;;;;5067472;28;20203;-81
2022/02/15 03:13:00;;;;;;;1.55;0.68;;;;;12.60;100560.00;;;;5074372;28;20198;-81
2022/02/15 03:15:27;;;;;;;2.40;0.88;;;;;12.60;100565.00;;;;5080067;28;20218;-81
2022/02/15 03:17:54;;;;;;;2.72;1.15;;;;;12.60;100571.00;;;;5073190;28;20199;-81
2022/02/15 03:20:21;;;;;;;1.38;0.90;;;;;12.60;100569.00;;;;5073480;28;20190;-81
2022/02/15 03:22:49;;;;;;;3.20;0.93;;;;;12.60;100570.00;;;;5077058;28;20195;-81
2022/02/15 03:25:16;;;;;;;2.83;1.55;;;;;12.60;100571.00;;;;5071133;28;20230;-81
2022/02/15 03:27:43;;;;;;;2.15;1.20;;;;;12.50;100577.00;;;;5066426;28;20209;-81
2022/02/15 03:30:12;;;;;;;3.38;1.23;;;;;12.50;100571.00;;;;5067561;28;20191;-81
2022/02/15 03:32:42;;;;;;;1.13;0.80;;;;;12.50;100589.00;;;;5074784;28;20202;-81
2022/02/15 03:35:09;;;;;;;1.33;0.90;;;;;12.50;100591.00;;;;5077142;28;20541;-81
2022/02/15 03:37:38;;;;;;;2.05;1.10;;;;;12.60;100597.00;;;;5066488;28;20207;-81
2022/02/15 03:40:06;;;;;;;2.67;0.90;;;;;12.60;100608.00;;;;5068711;28;20187;-81
2022/02/15 03:45:20;;;;;;;1.98;0.90;;;;;12.60;100614.00;;;;5077640;28;20237;-81
2022/02/15 03:47:48;;;;;;;2.58;1.20;;;;;12.60;100616.00;;;;5067849;28;20207;-81
2022/02/15 03:50:15;;;;;;;3.15;1.35;;;;;12.60;100622.00;;;;5069358;28;20248;-81
2022/02/15 03:52:42;;;;;;;3.60;1.23;;;;;12.60;100622.00;;;;5065583;28;20923;-81
2022/02/15 03:55:10;;;;;;;1.92;1.38;;;;;12.60;100626.00;;;;5066559;28;20549;-81
2022/02/15 03:57:38;;;;;;;3.13;1.20;;;;;12.70;100626.00;;;;5066498;28;20198;-81
2022/02/15 04:00:08;;;;;;;2.03;1.30;;;;;12.70;100619.00;;;;5066511;28;20298;-80
2022/02/15 04:02:36;;;;;;;1.85;1.20;;;;;12.70;100627.00;;;;5067246;28;20198;-81
2022/02/15 04:05:04;;;;;;;4.00;1.25;;;;;12.70;100623.00;;;;5072186;28;20309;-81
2022/02/15 04:07:31;;;;;;;2.45;1.65;;;;;12.80;100623.00;;;;5070773;28;20186;-80
2022/02/15 04:09:58;;;;;;;1.85;1.20;;;;;12.80;100622.00;;;;5072717;28;20199;-80
2022/02/15 04:12:25;;;;;;;2.30;1.35;;;;;12.80;100620.00;;;;5090323;28;20224;-81
2022/02/15 04:14:53;;;;;;;3.65;1.52;;;;;12.80;100622.00;;;;5073396;28;20340;-80
2022/02/15 04:17:20;;;;;;;2.58;1.60;;;;;12.80;100627.00;;;;5070219;28;20555;-80
2022/02/15 04:19:48;;;;;;;2.40;1.65;;;;;12.70;100628.00;;;;5070032;28;20244;-80
2022/02/15 04:22:16;;;;;;;5.70;1.80;;;;;12.80;100639.00;;;;5080171;28;20220;-81
2022/02/15 04:24:43;;;;;;;3.22;2.03;;;;;12.80;100655.00;;;;5076564;28;20297;-81
2022/02/15 04:27:10;;;;;;;5.53;1.80;;;;;12.80;100652.00;;;;5083989;28;20202;-81
2022/02/15 04:29:37;;;;;;;2.70;1.60;;;;;12.80;100652.00;;;;5079981;28;20247;-80
2022/02/15 04:32:05;;;;;;;3.90;2.22;;;;;12.80;100653.00;;;;5090015;28;20239;-80
2022/02/15 04:34:32;;;;;;;3.45;1.80;;;;;12.80;100654.00;;;;5072004;28;20203;-81
2022/02/15 04:37:01;;;;;;;3.05;1.67;;;;;12.80;100653.00;;;;5084739;28;20716;-80
2022/02/15 04:39:28;;;;;;;3.85;2.40;;;;;12.80;100656.00;;;;5086926;28;20286;-81
2022/02/15 04:41:55;;;;;;;3.47;1.85;;;;;12.80;100654.00;;;;5074262;28;20213;-81
2022/02/15 04:44:23;;;;;;;2.72;2.05;;;;;12.80;100656.00;;;;5070265;28;20210;-81
2022/02/15 04:46:50;;;;;;;3.03;2.10;;;;;12.80;100665.00;;;;5080600;28;20223;-80
2022/02/15 04:49:17;;;;;;;4.68;2.28;;;;;12.80;100662.00;;;;5074931;28;20195;-81
2022/02/15 04:51:45;;;;;;;4.30;2.25;;;;;12.80;100667.00;;;;5087520;28;20289;-81
2022/02/15 04:54:14;;;;;;;4.03;2.50;;;;;12.80;100672.00;;;;5089652;28;20263;-82
2022/02/15 04:56:42;;;;;;;5.22;2.92;;;;;12.80;100669.00;;;;5087946;28;20572;-81
2022/02/15 04:59:09;;;;;;;7.40;3.30;;;;;12.80;100680.00;;;;5089751;28;20194;-81
2022/02/15 05:01:37;;;;;;;4.43;3.15;;;;;12.80;100682.00;;;;5071992;28;20383;-81
2022/02/15 05:04:04;;;;;;;5.90;3.25;;;;;12.80;100676.00;;;;5071554;28;20575;-81
2022/02/15 05:06:31;;;;;;;4.22;3.03;;;;;12.80;100682.00;;;;5072457;28;20230;-81
2022/02/15 05:08:59;;;;;;;5.32;3.28;;;;;12.90;100683.00;;;;5068916;28;20195;-81
2022/02/15 05:11:27;;;;;;;7.30;3.58;;;;;12.90;100687.00;;;;5080913;28;20206;-81
2022/02/15 05:13:54;;;;;;;5.43;3.45;;;;;12.90;100680.00;;;;5089483;28;20252;-80
2022/02/15 05:16:22;;;;;;;5.82;3.65;;;;;12.90;100690.00;;;;5070148;28;20222;-81
2022/02/15 05:18:49;;;;;;;7.47;3.80;;;;;12.90;100692.00;;;;5084254;28;20277;-81
2022/02/15 05:21:16;;;;;;;5.95;3.65;;;;;12.90;100694.00;;;;5078253;28;20203;-81
2022/02/15 05:23:43;;;;;;;6.38;4.00;;;;;12.90;100684.00;;;;5068479;28;20207;-81
2022/02/15 05:26:10;;;;;;;5.75;3.60;;;;;12.90;100687.00;;;;5072680;28;20309;-81
2022/02/15 05:28:39;;;;;;;5.88;3.55;;;;;12.90;100689.00;;;;5069267;28;20213;-81
2022/02/15 05:31:09;;;;;;;5.32;3.53;;;;;12.90;100690.00;;;;5068878;28;20198;-81
2022/02/15 05:33:36;;;;;;;4.95;3.50;;;;;13.00;100690.00;;;;5070213;28;20198;-81
2022/02/15 05:36:04;;;;;;;6.90;4.22;;;;;13.00;100694.00;;;;5068215;28;20248;-81
2022/02/15 05:38:31;;;;;;;5.85;3.40;;;;;13.00;100701.00;;;;5070306;28;20234;-81
2022/02/15 05:40:58;;;;;;;6.28;3.53;;;;;13.00;100697.00;;;;5069751;28;20194;-81
2022/02/15 05:43:25;;;;;;;6.05;3.65;;;;;13.00;100700.00;;;;5070399;28;20649;-81
2022/02/15 05:45:54;;;;;;;6.80;3.28;;;;;13.00;100699.00;;;;5079516;28;20223;-81
2022/02/15 05:48:21;;;;;;;5.75;3.50;;;;;13.00;100704.00;;;;5071431;28;20198;-81
2022/02/15 05:50:52;;;;;;;7.03;3.65;;;;;13.00;100704.00;;;;5069488;28;20259;-81
2022/02/15 05:53:21;;;;;;;6.15;3.67;;;;;13.00;100708.00;;;;5080200;28;20218;-81
2022/02/15 05:55:51;;;;;;;5.07;3.03;;;;;13.10;100708.00;;;;5068686;28;20210;-81
2022/02/15 05:58:18;;;;;;;4.95;3.17;;;;;13.10;100717.00;;;;5079699;28;20205;-81
2022/02/15 06:00:46;;;;;;;3.45;2.55;;;;;13.10;100720.00;;;;5067944;28;20202;-81
2022/02/15 06:06:00;;;;;;;5.18;2.75;;;;;13.10;100721.00;;;;5080293;28;20225;-81
2022/02/15 06:08:27;;;;;;;3.75;2.55;;;;;13.10;100717.00;;;;5076469;28;20206;-81
2022/02/15 06:10:55;;;;;;;5.35;2.90;;;;;13.10;100718.00;;;;5071960;28;20183;-81
2022/02/15 06:13:22;;;;;;;4.18;2.70;;;;;13.20;100725.00;;;;5069722;28;20207;-79
2022/02/15 06:15:50;;;;;;;6.72;3.10;;;;;13.20;100740.00;;;;5071327;28;20275;-79
2022/02/15 06:18:19;;;;;;;5.32;2.72;;;;;13.10;100727.00;;;;5069324;28;20199;-80
2022/02/15 06:20:46;;;;;;;6.45;3.40;;;;;13.20;100724.00;;;;5071354;28;20206;-80
2022/02/15 06:23:13;;;;;;;6.25;3.13;;;;;13.20;100738.00;;;;5084234;28;20205;-83
2022/02/15 06:25:40;;;;;;;6.93;2.72;;;;;13.20;100731.00;;;;5079222;28;20206;-83
2022/02/15 06:28:08;;;;;;;6.68;3.40;;;;;13.20;100737.00;;;;5075622;28;20205;-79
2022/02/15 06:30:35;;;;;;;5.47;3.17;;;;;13.20;100731.00;;;;5080938;28;20556;-81
2022/02/15 06:33:03;;;;;;;6.75;3.05;;;;;13.20;100739.00;;;;5069870;28;20451;-80
2022/02/15 06:35:31;;;;;;;6.30;2.72;;;;;13.20;100736.00;;;;5088204;28;20194;-80
2022/02/15 06:37:58;;;;;;;4.70;3.10;;;;;13.20;100743.00;;;;5088002;28;20282;-80
2022/02/15 06:40:26;;;;;;;4.63;2.80;;;;;13.20;100746.00;;;;5071883;28;20198;-81
2022/02/15 06:42:53;;;;;;;4.45;2.50;;;;;13.20;100752.00;;;;5073363;28;20191;-80
2022/02/15 06:45:20;;;;;;;5.07;2.75;;;;;13.20;100746.00;;;;5077727;28;20210;-80
2022/02/15 06:47:47;;;;;;;5.75;2.47;;;;;13.20;100748.00;;;;5079916;28;20202;-81
2022/02/15 06:50:15;;;;;;;7.18;2.80;;;;;13.20;100748.00;;;;5068142;28;20198;-82
2022/02/15 06:52:43;;;;;;;5.47;2.45;;;;;13.20;100754.00;;;;5074693;28;20209;-81
2022/02/15 06:55:11;;;;;;;3.50;2.15;;;;;13.20;100764.00;;;;5077501;28;20205;-82
2022/02/15 06:57:39;;;;;;;4.90;1.80;;;;;13.20;100759.00;;;;5083408;28;20643;-82
2022/02/15 07:00:07;;;;;;;5.07;2.83;;;;;13.20;100753.00;;;;5070336;28;20203;-82
2022/02/15 07:02:35;;;;;;;9.07;2.58;;;;;13.20;100773.00;;;;5071339;28;20191;-82
2022/02/15 07:05:03;;;;;;;4.57;2.30;;;;;13.20;100761.00;;;;5088110;28;20205;-79
2022/02/15 07:07:30;;;;;;;5.80;2.65;;;;;13.20;100765.00;;;;5072633;28;20281;-81
2022/02/15 07:09:58;;;;;;;4.03;2.50;;;;;13.10;100768.00;;;;5076854;28;20696;-82
2022/02/15 07:12:26;;;;;;;4.63;2.30;;;;;13.10;100773.00;;;;5071480;28;20202;-81
2022/02/15 07:14:53;;;;;;;5.20;2.20;;;;;13.10;100773.00;;;;5075366;28;20195;-81
2022/02/15 07:17:20;;;;;;;3.72;1.90;;;;;13.10;100775.00;;;;5077091;28;20197;-80
2022/02/15 07:19:47;;;;;;;3.92;2.05;;;;;13.10;100784.00;;;;5072597;28;20648;-80
2022/02/15 07:22:14;;;;;;;5.72;1.73;;;;;13.00;100787.00;;;;5070139;28;20197;-80
2022/02/15 07:24:42;;;;;;;5.28;1.63;;;;;13.00;100790.00;;;;5087864;28;20194;-80
2022/02/15 07:27:10;;;;;;;2.92;1.88;;;;;12.90;100797.00;;;;5084682;28;20296;-80
2022/02/15 07:29:38;;;;;;;2.60;1.48;;;;;12.90;100795.00;;;;5082192;28;20251;-79
2022/02/15 07:32:05;;;;;;;3.75;1.88;;;;;12.90;100798.00;;;;5085354;28;20190;-80
2022/02/15 07:34:33;;;;;;;4.30;1.90;;;;;12.80;100797.00;;;;5071928;28;20206;-80
2022/02/15 07:37:00;;;;;;;3.47;1.52;;;;;12.80;100808.00;;;;5083591;28;20198;-79
2022/02/15 07:39:27;;;;;;;3.38;1.33;;;;;12.80;100801.00;;;;5081730;28;20218;-81
2022/02/15 07:41:55;;;;;;;4.63;1.55;;;;;12.80;100805.00;;;;5077204;28;20205;-80
2022/02/15 07:44:23;;;;;;;2.03;1.27;;;;;12.80;100814.00;;;;5090659;28;20595;-80
2022/02/15 07:46:50;;;;;;;4.13;1.30;;;;;12.80;100808.00;;;;5072677;28;20573;-80
2022/02/15 07:49:18;;;;;;;5.05;1.15;;;;;12.80;100814.00;;;;5077496;28;20214;-80
2022/02/15 07:51:45;;;;;;;7.47;2.00;;;;;12.80;100815.00;;;;5070933;28;20210;-78
2022/02/15 07:54:13;;;;;;;4.40;1.92;;;;;12.90;100817.00;;;;5075702;28;20566;-80
2022/02/15 07:56:40;;;;;;;4.13;1.30;;;;;12.90;100825.00;;;;5079689;28;20609;-80
2022/02/15 07:59:08;;;;;;;3.88;1.27;;;;;12.90;100835.00;;;;5082482;28;21036;-78
2022/02/15 08:01:36;;;;;;;2.35;1.20;;;;;13.00;100830.00;;;;5072514;28;20218;-78
2022/02/15 08:04:04;;;;;;;3.70;1.40;;;;;13.00;100834.00;;;;5071960;28;20194;-78
2022/02/15 08:06:32;;;;;;;2.22;1.10;;;;;13.10;100836.00;;;;5086618;28;20222;-78
2022/02/15 08:08:59;;;;;;;4.20;1.48;;;;;13.10;100850.00;;;;5070836;28;20665;-78
2022/02/15 08:11:26;;;;;;;5.82;1.50;;;;;13.10;100839.00;;;;5077693;28;20206;-77
2022/02/15 08:13:54;;;;;;;4.57;1.92;;;;;13.20;100848.00;;;;5072953;28;20194;-78
2022/02/15 08:16:21;;;;;;;4.93;1.83;;;;;13.20;100847.00;;;;5075246;28;20218;-77
2022/02/15 08:18:50;;;;;;;6.85;2.28;;;;;13.20;100843.00;;;;5078991;28;20285;-77
2022/02/15 08:21:17;;;;;;;3.85;1.50;;;;;13.30;100839.00;;;;5088058;28;20202;-76
2022/02/15 08:23:46;;;;;;;2.97;1.20;;;;;13.40;100834.00;;;;5084270;28;20611;-77
2022/02/15 08:26:13;;;;;;;2.70;1.38;;;;;13.40;100857.00;;;;5070092;28;20215;-76
2022/02/15 08:28:43;;;;;;;6.45;1.55;;;;;13.40;100857.00;;;;5071752;28;20198;-77
2022/02/15 08:31:11;;;;;;;6.47;1.90;;;;;13.40;100850.00;;;;5086069;28;20277;-77
2022/02/15 08:33:39;;;;;;;4.25;1.23;;;;;13.50;100852.00;;;;5076273;28;20294;-77
2022/02/15 08:36:07;;;;;;;2.10;1.08;;;;;13.50;100856.00;;;;5069228;28;20195;-77
2022/02/15 08:38:35;;;;;;;4.55;1.05;;;;;13.50;100854.00;;;;5073555;28;20700;-77
2022/02/15 08:41:03;;;;;;;2.72;0.80;;;;;13.50;100860.00;;;;5070054;28;20203;-77
2022/02/15 08:43:31;;;;;;;4.75;1.05;;;;;13.60;100870.00;;;;5087778;28;20226;-77
2022/02/15 08:45:59;;;;;;;5.00;1.80;;;;;13.60;100871.00;;;;5085809;28;20199;-77
2022/02/15 08:48:26;;;;;;;4.18;1.10;;;;;13.60;100870.00;;;;5079451;28;20209;-77
2022/02/15 08:50:53;;;;;;;2.40;0.95;;;;;13.60;100867.00;;;;5068444;28;20282;-77
2022/02/15 08:53:22;;;;;;;2.17;1.10;;;;;13.70;100868.00;;;;5072350;28;20657;-77
2022/02/15 08:55:49;;;;;;;3.67;0.70;;;;;13.70;100872.00;;;;5082044;28;20199;-79
2022/02/15 08:58:16;;;;;;;5.07;1.05;;;;;13.70;100863.00;;;;5077795;28;20661;-79
2022/02/15 09:00:44;;;;;;;4.15;1.27;;;;;13.70;100869.00;;;;5080289;28;20206;-79
2022/02/15 09:03:11;;;;;;;2.30;1.00;;;;;13.70;100868.00;;;;5079156;28;20220;-79
2022/02/15 09:05:38;;;;;;;3.38;1.10;;;;;13.70;100871.00;;;;5070526;28;20198;-77
2022/02/15 09:08:05;;;;;;;2.50;1.20;;;;;13.80;100867.00;;;;5078440;28;20696;-77
2022/02/15 09:10:37;;;;;;;3.05;1.05;;;;;13.80;100860.00;;;;5078890;28;20198;-77
2022/02/15 09:13:04;;;;;;;4.55;1.25;;;;;13.80;100858.00;;;;5077583;28;20199;-77
2022/02/15 09:15:32;;;;;;;2.72;1.17;;;;;13.90;100864.00;;;;5078388;28;20223;-77
2022/02/15 09:17:59;;;;;;;3.35;1.02;;;;;13.90;100867.00;;;;5070029;28;20286;-77
2022/02/15 09:20:27;;;;;;;3.80;1.00;;;;;13.90;100872.00;;;;5080448;28;20210;-79
2022/02/15 09:22:54;;;;;;;4.13;1.27;;;;;13.90;100866.00;;;;5068863;28;20199;-78
2022/02/15 09:25:22;;;;;;;3.70;1.40;;;;;13.90;100874.00;;;;5078560;28;20201;-79
2022/02/15 09:27:51;;;;;;;5.15;1.30;;;;;13.80;100868.00;;;;5086112;28;20263;-81
2022/02/15 09:30:18;;;;;;;5.38;1.55;;;;;13.80;100877.00;;;;5087487;28;20205;-81
2022/02/15 09:32:45;;;;;;;3.38;1.02;;;;;13.80;100883.00;;;;5088585;28;20213;-81
2022/02/15 09:35:13;;;;;;;3.33;1.00;;;;;13.80;100887.00;;;;5070609;28;20219;-79
2022/02/15 09:37:40;;;;;;;2.05;0.80;;;;;13.80;100889.00;;;;5075250;28;20210;-78
2022/02/15 09:40:08;;;;;;;4.13;1.10;;;;;13.80;100893.00;;;;5071700;28;20217;-79
2022/02/15 09:42:36;;;;;;;2.15;1.13;;;;;13.90;100885.00;;;;5076616;28;20203;-78
2022/02/15 09:45:07;;;;;;;4.78;1.30;;;;;13.90;100893.00;;;;5080200;28;20223;-79
2022/02/15 09:47:36;;;;;;;4.00;1.10;;;;;14.00;100894.00;;;;5077681;28;20214;-79
2022/02/15 09:50:06;;;;;;;4.45;1.52;;;;;14.00;100903.00;;;;5077455;28;20186;-79
2022/02/15 09:52:33;;;;;;;5.10;1.00;;;;;14.00;100902.00;;;;5091263;28;20191;-79
2022/02/15 09:55:01;;;;;;;3.92;0.98;;;;;14.00;100889.00;;;;5073543;28;20200;-79
2022/02/15 09:57:28;;;;;;;4.57;0.80;;;;;13.90;100892.00;;;;5078525;28;20190;-78
2022/02/15 09:59:57;;;;;;;3.38;0.75;;;;;14.00;100892.00;;;;5088638;28;20255;-79
2022/02/15 10:02:34;;;;;;;1.52;0.80;;;;;14.00;100889.00;;;;5083522;28;20210;-79
2022/02/15 10:05:02;;;;;;;2.33;0.70;;;;;14.10;100894.00;;;;5077204;28;20201;-79
2022/02/15 10:07:29;;;;;;;3.58;1.25;;;;;14.10;100903.00;;;;5081398;28;20214;-79
2022/02/15 10:09:59;;;;;;;2.67;1.15;;;;;14.10;100894.00;;;;5084689;28;20209;-79
2022/02/15 10:12:28;;;;;;;7.80;1.88;;;;;14.20;100898.00;;;;5067080;28;20248;-81
2022/02/15 10:14:56;;;;;;;3.15;1.25;;;;;14.30;100889.00;;;;5073625;28;20198;-79
2022/02/15 10:17:26;;;;;;;1.73;0.52;;;;;14.30;100884.00;;;;5069645;28;20195;-82
2022/02/15 10:19:55;;;;;;;4.22;0.80;;;;;14.40;100891.00;;;;5073370;28;20197;-82
2022/02/15 10:22:22;;;;;;;4.20;1.30;;;;;14.40;100886.00;;;;5077869;28;20202;-81
2022/02/15 10:24:52;;;;;;;1.50;0.43;;;;;14.40;100887.00;;;;5087073;28;20571;-81
2022/02/15 10:27:24;;;;;;;2.90;0.65;;;;;14.40;100894.00;;;;5078909;28;20250;-80
2022/02/15 10:29:54;;;;;;;3.63;1.38;;;;;14.40;100882.00;;;;5069214;28;20198;-77
2022/02/15 10:32:22;;;;;;;1.52;0.65;;;;;14.40;100871.00;;;;5067932;28;20198;-81
2022/02/15 10:34:56;;;;;;;3.28;1.17;;;;;14.40;100888.00;;;;5074536;28;20210;-82
2022/02/15 10:37:26;;;;;;;2.17;0.73;;;;;14.50;100886.00;;;;5068102;28;20639;-80
2022/02/15 10:39:56;;;;;;;2.47;0.70;;;;;14.60;100886.00;;;;5067480;28;20653;-79
2022/02/15 10:42:26;;;;;;;2.05;0.82;;;;;14.60;100885.00;;;;5067614;28;20233;-79
2022/02/15 10:44:57;;;;;;;3.28;0.50;;;;;14.60;100875.00;;;;5069250;28;20213;-79
2022/02/15 10:47:26;;;;;;;4.05;1.02;;;;;14.60;100867.00;;;;5078514;28;20226;-82
2022/02/15 10:49:56;;;;;;;3.42;1.00;;;;;14.70;100865.00;;;;5083593;28;20186;-81
2022/02/15 10:52:24;;;;;;;2.10;0.40;;;;;14.70;100863.00;;;;5081639;28;20194;-80
2022/02/15 10:54:51;;;;;;;3.08;1.10;;;;;14.80;100851.00;;;;5074331;28;20190;-80
2022/02/15 10:57:19;;;;;;;1.77;0.57;;;;;14.80;100856.00;;;;5078846;28;20547;-80
2022/02/15 10:59:48;;;;;;;3.55;0.70;;;;;14.90;100867.00;;;;5082969;28;20282;-80
2022/02/15 11:02:20;;;;;;;2.13;0.35;;;;;14.80;100859.00;;;;5080165;28;20283;-80
2022/02/15 11:04:49;;;;;;;1.67;0.77;;;;;14.90;100859.00;;;;5079019;28;20582;-80
2022/02/15 11:07:19;;;;;;;2.65;0.30;;;;;14.90;100858.00;;;;5066971;28;20301;-81
2022/02/15 11:10:04;;;;;;;4.10;0.50;;;;;14.90;100855.00;;;;5074738;28;20673;-79
2022/02/15 11:12:40;;;;;;;1.45;0.30;;;;;15.00;100854.00;;;;5070782;28;20205;-81
2022/02/15 11:15:08;;;;;;;4.05;0.60;;;;;15.10;100854.00;;;;5070027;28;20214;-82
2022/02/15 11:17:35;;;;;;;2.25;0.45;;;;;15.20;100865.00;;;;5071068;28;20206;-82
2022/02/15 11:20:06;;;;;;;1.77;0.40;;;;;15.30;100862.00;;;;5071252;28;20216;-82
2022/02/15 11:22:44;;;;;;;2.55;0.93;;;;;15.30;100856.00;;;;5071780;28;20195;-81
2022/02/15 11:25:11;;;;;;;1.90;0.52;;;;;15.40;100859.00;;;;5078769;28;20205;-79
2022/02/15 11:27:39;;;;;;;2.55;0.70;;;;;15.40;100857.00;;;;5084627;28;20229;-80
2022/02/15 11:30:15;;;;;;;2.67;0.68;;;;;15.40;100865.00;;;;5085805;28;20191;-80
2022/02/15 11:32:44;;;;;;;1.17;0.40;;;;;15.40;100851.00;;;;5081148;28;20234;-80
2022/02/15 11:35:15;;;;;;;2.85;0.50;;;;;15.40;100846.00;;;;5078148;28;20198;-79
2022/02/15 11:37:44;;;;;;;1.40;0.60;;;;;15.40;100846.00;;;;5074870;28;20206;-80
2022/02/15 11:40:14;;;;;;;3.83;0.40;;;;;15.40;100844.00;;;;5075383;28;20202;-80
2022/02/15 11:42:44;;;;;;;4.85;0.73;;;;;15.50;100856.00;;;;5082960;28;20243;-81
2022/02/15 11:45:25;;;;;;;0.82;0.30;;;;;15.40;100847.00;;;;5087631;28;20194;-80
2022/02/15 11:47:52;;;;;;;1.70;0.50;;;;;15.50;100845.00;;;;5079979;28;20400;-81
2022/02/15 11:50:19;;;;;;;3.53;0.88;;;;;15.50;100844.00;;;;5088760;28;20206;-80
2022/02/15 11:52:48;;;;;;;1.80;0.50;;;;;15.50;100848.00;;;;5081114;28;20205;-81
2022/02/15 11:55:17;;;;;;;2.42;0.30;;;;;15.50;100839.00;;;;5077349;28;20923;-82
2022/02/15 11:57:46;;;;;;;4.65;0.50;;;;;15.60;100846.00;;;;5090581;28;20199;-80
2022/02/15 12:00:14;;;;;;;3.03;0.75;;;;;15.60;100851.00;;;;5090022;28;20205;-81
2022/02/15 12:02:52;;;;;;;1.25;0.43;;;;;15.60;100847.00;;;;5073409;28;20210;-80
2022/02/15 12:05:20;;;;;;;1.50;0.60;;;;;15.70;100839.00;;;;5081425;28;20203;-83
2022/02/15 12:07:48;;;;;;;2.03;0.30;;;;;15.80;100835.00;;;;5078658;28;20218;-81
2022/02/15 12:10:16;;;;;;;0.65;0.30;;;;;15.80;100829.00;;;;5083397;28;20226;-79
2022/02/15 12:12:44;;;;;;;2.95;0.57;;;;;15.90;100822.00;;;;5088314;28;20197;-79
2022/02/15 12:15:11;;;;;;;1.10;0.45;;;;;15.90;100815.00;;;;5085308;28;20648;-79
2022/02/15 12:17:42;;;;;;;3.28;0.60;;;;;15.90;100816.00;;;;5077818;28;20202;-79